createdAt,value
2019-05-28T00:01:30.662Z,13.40
2019-05-28T00:03:57.642Z,13.40
2019-05-28T00:06:24.465Z,13.50
2019-05-28T00:08:51.284Z,13.50
2019-05-28T00:11:18.197Z,13.40
2019-05-28T00:13:45.016Z,13.30
2019-05-28T00:16:11.841Z,13.30
2019-05-28T00:18:38.706Z,13.40
2019-05-28T00:21:05.520Z,13.50
2019-05-28T00:23:32.415Z,13.60
2019-05-28T00:25:59.235Z,13.80
2019-05-28T00:28:26.128Z,13.80
2019-05-28T00:30:53.016Z,13.90
2019-05-28T00:33:19.845Z,13.90
2019-05-28T00:35:47.148Z,13.90
2019-05-28T00:38:14.147Z,13.90
2019-05-28T00:40:41.844Z,13.90
2019-05-28T00:43:08.770Z,13.90
2019-05-28T00:45:35.593Z,13.90
2019-05-28T00:48:02.493Z,13.90
2019-05-28T00:50:29.381Z,13.90
2019-05-28T00:52:56.295Z,14.00
2019-05-28T00:55:23.122Z,13.90
2019-05-28T00:57:50.912Z,13.90
2019-05-28T01:00:36.602Z,13.90
2019-05-28T01:02:52.169Z,14.00
2019-05-28T01:05:19.053Z,14.00
2019-05-28T01:07:45.891Z,14.00
2019-05-28T01:10:13.088Z,14.00
2019-05-28T01:12:39.920Z,14.00
2019-05-28T01:15:07.324Z,14.00
2019-05-28T01:17:34.416Z,13.80
2019-05-28T01:20:01.409Z,13.90
2019-05-28T01:22:28.324Z,13.90
2019-05-28T01:24:56.008Z,13.80
2019-05-28T01:27:22.883Z,13.80
2019-05-28T01:29:49.827Z,13.90
2019-05-28T01:32:16.661Z,13.90
2019-05-28T01:34:44.015Z,13.90
2019-05-28T01:37:10.844Z,13.90
2019-05-28T01:39:37.767Z,13.80
2019-05-28T01:42:04.624Z,13.70
2019-05-28T01:44:31.437Z,13.60
2019-05-28T01:46:58.360Z,13.50
2019-05-28T01:49:25.196Z,13.50
2019-05-28T01:51:52.021Z,13.60
2019-05-28T01:54:18.884Z,13.60
2019-05-28T01:56:45.708Z,13.50
2019-05-28T01:59:12.603Z,13.50
2019-05-28T02:01:39.432Z,13.40
2019-05-28T02:04:06.412Z,13.30
2019-05-28T02:06:33.232Z,13.30
2019-05-28T02:09:00.052Z,13.30
2019-05-28T02:11:26.953Z,13.20
2019-05-28T02:13:53.775Z,13.20
2019-05-28T02:16:20.717Z,13.10
2019-05-28T02:18:47.553Z,13.10
2019-05-28T02:21:14.368Z,13.10
2019-05-28T02:23:41.288Z,13.20
2019-05-28T02:26:08.108Z,13.20
2019-05-28T02:28:34.938Z,13.20
2019-05-28T02:31:01.839Z,13.20
2019-05-28T02:33:28.674Z,13.10
2019-05-28T02:35:55.569Z,13.10
2019-05-28T02:38:22.468Z,13.10
2019-05-28T02:40:49.288Z,13.10
2019-05-28T02:43:16.223Z,13.00
2019-05-28T02:45:43.048Z,13.00
2019-05-28T02:48:09.944Z,13.10
2019-05-28T02:50:46.044Z,13.20
2019-05-28T02:53:12.982Z,13.30
2019-05-28T02:55:42.388Z,13.20
2019-05-28T02:58:11.169Z,13.10
2019-05-28T03:00:38.627Z,13.20
2019-05-28T03:03:06.008Z,13.10
2019-05-28T03:05:34.124Z,13.00
2019-05-28T03:08:03.021Z,13.00
2019-05-28T03:10:59.891Z,12.90
2019-05-28T03:13:04.055Z,12.80
2019-05-28T03:15:33.676Z,12.80
2019-05-28T03:18:01.197Z,12.90
2019-05-28T03:20:28.212Z,12.90
2019-05-28T03:22:55.516Z,12.80
2019-05-28T03:25:22.785Z,12.80
2019-05-28T03:27:49.744Z,12.80
2019-05-28T03:30:16.781Z,12.90
2019-05-28T03:32:44.469Z,13.00
2019-05-28T03:35:11.292Z,13.00
2019-05-28T03:37:39.489Z,13.10
2019-05-28T03:40:08.482Z,13.10
2019-05-28T03:42:35.391Z,13.20
2019-05-28T03:45:03.694Z,13.20
2019-05-28T03:47:30.514Z,13.10
2019-05-28T03:49:57.427Z,13.10
2019-05-28T03:52:24.282Z,13.10
2019-05-28T03:54:51.162Z,13.00
2019-05-28T03:57:17.989Z,13.00
2019-05-28T03:59:44.890Z,12.90
2019-05-28T04:02:23.238Z,12.80
2019-05-28T04:04:40.404Z,12.90
2019-05-28T04:07:07.266Z,12.90
2019-05-28T04:09:34.516Z,12.90
2019-05-28T04:12:01.410Z,12.90
2019-05-28T04:14:28.296Z,12.90
2019-05-28T04:16:55.130Z,12.90
2019-05-28T04:19:22.012Z,12.80
2019-05-28T04:21:48.934Z,12.80
2019-05-28T04:24:15.724Z,12.80
2019-05-28T04:26:42.616Z,12.80
2019-05-28T04:29:09.645Z,12.80
2019-05-28T04:31:36.588Z,12.80
2019-05-28T04:34:03.448Z,12.80
2019-05-28T04:36:30.406Z,12.80
2019-05-28T04:38:57.232Z,12.80
2019-05-28T04:41:24.212Z,12.80
2019-05-28T04:43:51.104Z,12.80
2019-05-28T04:46:17.961Z,12.80
2019-05-28T04:48:44.852Z,12.80
2019-05-28T04:51:11.696Z,12.80
2019-05-28T04:53:38.584Z,12.80
2019-05-28T04:56:05.484Z,12.80
2019-05-28T04:58:32.310Z,12.80
2019-05-28T05:00:59.736Z,12.80
2019-05-28T05:03:26.528Z,12.80
2019-05-28T05:05:53.424Z,12.90
2019-05-28T05:08:20.247Z,12.90
2019-05-28T05:10:47.157Z,13.00
2019-05-28T05:13:13.980Z,13.00
2019-05-28T05:15:40.872Z,13.10
2019-05-28T05:18:07.696Z,13.20
2019-05-28T05:20:34.592Z,13.20
2019-05-28T05:23:01.428Z,13.30
2019-05-28T05:25:28.334Z,13.40
2019-05-28T05:27:55.162Z,13.30
2019-05-28T05:30:22.681Z,13.30
2019-05-28T05:32:49.604Z,13.20
2019-05-28T05:35:16.637Z,13.20
2019-05-28T05:37:43.531Z,13.20
2019-05-28T05:40:11.833Z,13.20
2019-05-28T05:42:38.992Z,13.20
2019-05-28T05:45:07.681Z,13.30
2019-05-28T05:47:34.689Z,13.20
2019-05-28T05:50:01.605Z,13.30
2019-05-28T05:52:28.423Z,13.30
2019-05-28T05:54:55.312Z,13.20
2019-05-28T05:57:22.228Z,13.30
2019-05-28T05:59:49.132Z,13.30
2019-05-28T06:02:15.956Z,13.20
2019-05-28T06:04:42.847Z,13.20
2019-05-28T06:07:09.740Z,13.30
2019-05-28T06:09:36.613Z,13.30
2019-05-28T06:12:03.539Z,13.30
2019-05-28T06:14:30.443Z,13.30
2019-05-28T06:16:57.264Z,13.30
2019-05-28T06:19:24.156Z,13.20
2019-05-28T06:21:50.980Z,13.20
2019-05-28T06:24:17.876Z,13.20
2019-05-28T06:26:44.696Z,13.10
2019-05-28T06:29:11.585Z,13.00
2019-05-28T06:31:38.484Z,13.00
2019-05-28T06:34:05.309Z,13.20
2019-05-28T06:36:32.197Z,13.30
2019-05-28T06:38:59.024Z,13.30
2019-05-28T06:41:25.997Z,13.30
2019-05-28T06:43:52.929Z,13.30
2019-05-28T06:46:20.092Z,13.40
2019-05-28T06:48:47.001Z,13.50
2019-05-28T06:51:13.974Z,13.70
2019-05-28T06:53:41.112Z,13.80
2019-05-28T06:56:07.940Z,13.80
2019-05-28T06:58:39.163Z,14.00
2019-05-28T07:01:03.913Z,14.00
2019-05-28T07:03:31.263Z,14.00
2019-05-28T07:06:06.941Z,14.20
2019-05-28T07:08:26.796Z,14.20
2019-05-28T07:10:57.726Z,14.30
2019-05-28T07:13:22.295Z,14.50
2019-05-28T07:15:49.129Z,14.60
2019-05-28T07:18:16.012Z,14.50
2019-05-28T07:20:42.919Z,14.50
2019-05-28T07:23:09.737Z,14.50
2019-05-28T07:25:37.520Z,14.50
2019-05-28T07:28:11.173Z,14.60
2019-05-28T07:30:35.303Z,14.60
2019-05-28T07:33:04.696Z,14.60
2019-05-28T07:35:44.749Z,14.50
2019-05-28T07:38:01.286Z,14.40
2019-05-28T07:40:31.561Z,14.30
2019-05-28T07:42:59.033Z,14.40
2019-05-28T07:45:26.028Z,14.40
2019-05-28T07:47:54.923Z,14.50
2019-05-28T07:50:24.037Z,14.60
2019-05-28T07:52:50.848Z,14.60
2019-05-28T07:55:23.652Z,14.60
2019-05-28T07:57:50.888Z,14.60
2019-05-28T08:00:40.305Z,14.60
2019-05-28T08:03:07.965Z,14.60
2019-05-28T08:05:37.892Z,14.50
2019-05-28T08:08:07.888Z,14.60
2019-05-28T08:10:35.967Z,14.60
2019-05-28T08:13:06.166Z,14.60
2019-05-28T08:15:38.999Z,14.60
2019-05-28T08:18:10.177Z,14.70
2019-05-28T08:20:38.078Z,14.50
2019-05-28T08:23:05.671Z,14.50
2019-05-28T08:25:46.188Z,14.70
2019-05-28T08:28:18.447Z,14.70
2019-05-28T08:30:35.201Z,14.50
2019-05-28T08:33:02.509Z,14.50
2019-05-28T08:35:30.776Z,14.70
2019-05-28T08:37:58.150Z,14.60
2019-05-28T08:40:26.033Z,14.60
2019-05-28T08:42:53.334Z,14.70
2019-05-28T08:45:20.500Z,14.70
2019-05-28T08:47:47.402Z,14.80
2019-05-28T08:50:14.874Z,14.90
2019-05-28T08:52:41.979Z,15.00
2019-05-28T08:55:09.064Z,15.00
2019-05-28T08:57:36.031Z,15.00
2019-05-28T09:00:06.712Z,15.00
2019-05-28T09:02:33.766Z,15.00
2019-05-28T09:05:00.613Z,14.90
2019-05-28T09:07:28.109Z,14.80
2019-05-28T09:09:55.008Z,14.70
2019-05-28T09:12:21.828Z,14.70
2019-05-28T09:14:55.982Z,14.80
2019-05-28T09:17:17.401Z,14.90
2019-05-28T09:19:44.236Z,14.90
2019-05-28T09:22:24.740Z,14.80
2019-05-28T09:24:39.820Z,14.70
2019-05-28T09:27:06.732Z,14.80
2019-05-28T09:29:33.652Z,14.90
2019-05-28T09:32:00.480Z,15.00
2019-05-28T09:34:27.302Z,14.90
2019-05-28T09:36:54.174Z,14.90
2019-05-28T09:39:20.998Z,14.90
2019-05-28T09:41:47.884Z,14.80
2019-05-28T09:44:14.848Z,14.90
2019-05-28T09:46:41.672Z,14.80
2019-05-28T09:49:08.647Z,14.80
2019-05-28T09:51:35.463Z,14.30
2019-05-28T09:54:02.368Z,14.10
2019-05-28T09:56:32.609Z,13.90
2019-05-28T09:58:57.868Z,13.90
2019-05-28T10:01:25.178Z,13.90
2019-05-28T10:03:52.072Z,14.00
2019-05-28T10:06:18.897Z,14.10
2019-05-28T10:08:45.790Z,14.20
2019-05-28T10:11:12.686Z,14.20
2019-05-28T10:13:41.532Z,14.30
2019-05-28T10:16:08.169Z,14.30
2019-05-28T10:18:35.065Z,14.20
2019-05-28T10:21:16.984Z,14.30
2019-05-28T10:23:30.605Z,14.40
2019-05-28T10:25:57.511Z,14.30
2019-05-28T10:28:24.397Z,14.40
2019-05-28T10:30:51.232Z,14.50
2019-05-28T10:33:18.134Z,14.50
2019-05-28T10:35:44.948Z,14.50
2019-05-28T10:38:15.843Z,14.50
2019-05-28T10:40:40.525Z,14.40
2019-05-28T10:43:07.420Z,14.40
2019-05-28T10:45:34.365Z,14.50
2019-05-28T10:48:01.243Z,14.50
2019-05-28T10:50:30.089Z,14.60
2019-05-28T10:52:56.931Z,14.60
2019-05-28T10:55:23.789Z,14.70
2019-05-28T10:57:50.608Z,14.60
2019-05-28T11:00:18.862Z,14.60
2019-05-28T11:02:45.760Z,14.70
2019-05-28T11:05:13.959Z,14.70
2019-05-28T11:07:40.884Z,14.70
2019-05-28T11:10:23.064Z,14.80
2019-05-28T11:12:37.140Z,14.80
2019-05-28T11:15:10.150Z,14.90
2019-05-28T11:17:37.033Z,14.90
2019-05-28T11:20:06.713Z,15.10
2019-05-28T11:22:33.629Z,15.10
2019-05-28T11:25:00.465Z,14.90
2019-05-28T11:27:27.281Z,14.80
2019-05-28T11:29:54.148Z,14.70
2019-05-28T11:32:20.961Z,14.80
2019-05-28T11:34:47.844Z,14.80
2019-05-28T11:37:14.656Z,14.90
2019-05-28T11:39:41.561Z,15.00
2019-05-28T11:42:08.483Z,15.10
2019-05-28T11:44:35.373Z,15.20
2019-05-28T11:47:02.354Z,15.20
2019-05-28T11:49:29.321Z,15.00
2019-05-28T11:51:56.161Z,15.00
2019-05-28T11:54:23.065Z,14.80
2019-05-28T11:56:50.009Z,14.70
2019-05-28T11:59:16.829Z,14.70
2019-05-28T12:01:47.133Z,14.60
2019-05-28T12:04:14.023Z,14.60
2019-05-28T12:06:41.255Z,14.50
2019-05-28T12:09:08.076Z,14.50
2019-05-28T12:11:35.486Z,14.40
2019-05-28T12:14:02.313Z,14.40
2019-05-28T12:16:29.207Z,14.40
2019-05-28T12:18:58.334Z,14.50
2019-05-28T12:21:24.824Z,14.60
2019-05-28T12:23:51.663Z,14.80
2019-05-28T12:26:18.540Z,14.60
2019-05-28T12:28:45.576Z,14.60
2019-05-28T12:31:12.482Z,14.60
2019-05-28T12:33:39.376Z,14.70
2019-05-28T12:36:08.526Z,14.80
2019-05-28T12:38:35.523Z,14.70
2019-05-28T12:41:02.412Z,14.80
2019-05-28T12:43:29.252Z,14.80
2019-05-28T12:45:56.191Z,14.70
2019-05-28T12:48:23.050Z,14.70
2019-05-28T12:50:49.941Z,14.70
2019-05-28T12:53:16.765Z,14.70
2019-05-28T12:55:43.713Z,14.60
2019-05-28T12:58:10.601Z,14.70
2019-05-28T13:00:38.090Z,14.90
2019-05-28T13:03:04.880Z,15.00
2019-05-28T13:05:33.292Z,15.00
2019-05-28T13:08:10.122Z,14.90
2019-05-28T13:10:28.747Z,14.80
2019-05-28T13:12:55.653Z,14.90
2019-05-28T13:15:22.569Z,15.00
2019-05-28T13:17:49.444Z,15.00
2019-05-28T13:20:18.108Z,15.10
2019-05-28T13:22:45.659Z,15.30
2019-05-28T13:25:12.814Z,15.40
2019-05-28T13:27:39.954Z,15.30
2019-05-28T13:30:11.248Z,15.40
2019-05-28T13:32:38.735Z,15.20
2019-05-28T13:35:07.793Z,15.20
2019-05-28T13:37:34.677Z,15.30
2019-05-28T13:40:01.585Z,15.40
2019-05-28T13:42:28.973Z,15.40
2019-05-28T13:44:55.840Z,15.20
2019-05-28T13:47:33.138Z,14.90
2019-05-28T13:49:51.360Z,14.70
2019-05-28T13:52:18.452Z,14.20
2019-05-28T13:54:45.341Z,13.80
2019-05-28T13:57:14.120Z,13.40
2019-05-28T13:59:41.238Z,13.30
2019-05-28T14:02:08.133Z,13.10
2019-05-28T14:04:35.113Z,12.80
2019-05-28T14:07:02.007Z,12.80
2019-05-28T14:09:29.494Z,12.80
2019-05-28T14:11:56.408Z,12.70
2019-05-28T14:14:23.264Z,12.70
2019-05-28T14:16:50.251Z,12.60
2019-05-28T14:19:17.176Z,12.70
2019-05-28T14:21:44.052Z,12.70
2019-05-28T14:24:10.904Z,12.90
2019-05-28T14:26:37.805Z,13.10
2019-05-28T14:29:04.623Z,13.30
2019-05-28T14:31:31.525Z,13.40
2019-05-28T14:33:58.369Z,13.30
2019-05-28T14:36:25.278Z,13.40
2019-05-28T14:39:02.759Z,13.30
2019-05-28T14:41:21.156Z,13.40
2019-05-28T14:43:48.241Z,13.30
2019-05-28T14:46:15.129Z,13.40
2019-05-28T14:48:42.131Z,13.40
2019-05-28T14:51:09.023Z,13.50
2019-05-28T14:53:35.849Z,13.40
2019-05-28T14:56:02.773Z,13.40
2019-05-28T14:58:29.643Z,13.50
2019-05-28T15:00:56.750Z,13.50
2019-05-28T15:03:23.625Z,13.50
2019-05-28T15:05:50.449Z,13.40
2019-05-28T15:08:17.325Z,13.30
2019-05-28T15:10:44.148Z,13.30
2019-05-28T15:13:11.078Z,13.20
2019-05-28T15:15:37.901Z,13.30
2019-05-28T15:18:04.762Z,13.30
2019-05-28T15:20:31.661Z,13.50
2019-05-28T15:22:58.764Z,13.50
2019-05-28T15:25:25.581Z,13.40
2019-05-28T15:27:52.506Z,13.50
2019-05-28T15:30:20.616Z,13.40
2019-05-28T15:32:47.436Z,13.50
2019-05-28T15:35:14.361Z,13.50
2019-05-28T15:37:41.287Z,13.50
2019-05-28T15:40:09.305Z,13.50
2019-05-28T15:42:36.233Z,13.40
2019-05-28T15:45:10.314Z,13.40
2019-05-28T15:47:37.947Z,13.40
2019-05-28T15:50:06.692Z,13.40
2019-05-28T15:52:33.488Z,13.40
2019-05-28T15:55:00.341Z,13.50
2019-05-28T15:57:27.331Z,13.60
2019-05-28T15:59:54.210Z,13.60
2019-05-28T16:02:21.100Z,13.50
2019-05-28T16:04:48.210Z,13.40
2019-05-28T16:07:15.114Z,13.40
2019-05-28T16:09:55.039Z,13.40
2019-05-28T16:12:11.209Z,13.50
2019-05-28T16:14:38.285Z,13.50
2019-05-28T16:17:05.453Z,13.50
2019-05-28T16:19:32.292Z,13.40
2019-05-28T16:21:59.192Z,13.50
2019-05-28T16:24:26.270Z,13.50
2019-05-28T16:26:53.225Z,13.40
2019-05-28T16:29:20.056Z,13.50
2019-05-28T16:31:46.952Z,13.30
2019-05-28T16:34:13.772Z,13.30
2019-05-28T16:36:40.672Z,13.40
2019-05-28T16:39:08.003Z,13.40
2019-05-28T16:41:34.933Z,13.40
2019-05-28T16:44:01.910Z,13.40
2019-05-28T16:46:29.001Z,13.40
2019-05-28T16:48:55.976Z,13.50
2019-05-28T16:51:22.852Z,13.40
2019-05-28T16:53:49.677Z,13.30
2019-05-28T16:56:16.595Z,13.30
2019-05-28T16:58:43.420Z,13.30
2019-05-28T17:01:22.037Z,13.30
2019-05-28T17:03:39.024Z,13.30
2019-05-28T17:06:05.889Z,13.30
2019-05-28T17:08:32.817Z,13.30
2019-05-28T17:10:59.653Z,13.20
2019-05-28T17:13:26.553Z,13.10
2019-05-28T17:15:53.372Z,12.90
2019-05-28T17:18:20.400Z,12.90
2019-05-28T17:20:47.241Z,12.90
2019-05-28T17:23:14.120Z,12.80
2019-05-28T17:25:41.081Z,12.80
2019-05-28T17:28:08.125Z,12.80
2019-05-28T17:30:34.958Z,12.90
2019-05-28T17:33:01.908Z,12.90
2019-05-28T17:35:28.732Z,12.90
2019-05-28T17:37:55.640Z,12.90
2019-05-28T17:40:22.558Z,12.80
2019-05-28T17:42:49.500Z,12.80
2019-05-28T17:45:17.857Z,12.80
2019-05-28T17:47:44.969Z,12.80
2019-05-28T17:50:13.587Z,12.70
2019-05-28T17:52:41.341Z,12.70
2019-05-28T17:55:08.380Z,12.60
2019-05-28T17:57:35.285Z,12.60
2019-05-28T18:00:04.578Z,12.60
2019-05-28T18:02:31.567Z,12.50
2019-05-28T18:04:58.478Z,12.30
2019-05-28T18:07:25.300Z,12.20
2019-05-28T18:09:52.204Z,12.10
2019-05-28T18:12:19.033Z,12.10
2019-05-28T18:14:45.912Z,12.00
2019-05-28T18:17:12.779Z,12.00
2019-05-28T18:19:39.670Z,11.90
2019-05-28T18:22:06.577Z,11.90
2019-05-28T18:24:33.413Z,11.80
2019-05-28T18:27:00.270Z,11.80
2019-05-28T18:29:27.129Z,11.70
2019-05-28T18:31:53.952Z,11.70
2019-05-28T18:34:20.777Z,11.60
2019-05-28T18:36:47.668Z,11.60
2019-05-28T18:39:17.074Z,11.60
2019-05-28T18:41:44.776Z,11.60
2019-05-28T18:44:11.962Z,11.60
2019-05-28T18:46:41.840Z,11.50
2019-05-28T18:49:10.532Z,11.40
2019-05-28T18:51:38.948Z,11.50
2019-05-28T18:54:06.342Z,11.40
2019-05-28T18:56:42.951Z,11.40
2019-05-28T18:59:09.803Z,11.40
2019-05-28T19:01:38.287Z,11.30
2019-05-28T19:04:05.352Z,11.30
2019-05-28T19:06:34.976Z,11.30
2019-05-28T19:09:01.856Z,11.30
2019-05-28T19:11:37.773Z,11.30
2019-05-28T19:14:02.266Z,11.40
2019-05-28T19:16:36.909Z,11.30
2019-05-28T19:19:03.792Z,11.30
2019-05-28T19:21:31.850Z,11.30
2019-05-28T19:24:01.342Z,11.20
2019-05-28T19:26:28.792Z,11.20
2019-05-28T19:28:55.713Z,11.30
2019-05-28T19:31:24.792Z,11.20
2019-05-28T19:33:55.562Z,11.20
2019-05-28T19:36:23.432Z,11.20
2019-05-28T19:38:52.553Z,11.30
2019-05-28T19:41:23.479Z,11.20
2019-05-28T19:43:50.682Z,11.20
2019-05-28T19:46:17.749Z,11.20
2019-05-28T19:48:45.114Z,11.20
2019-05-28T19:51:15.317Z,11.20
2019-05-28T19:53:44.618Z,11.10
2019-05-28T19:56:11.549Z,11.10
2019-05-28T19:58:38.357Z,11.20
2019-05-28T20:01:05.280Z,11.20
2019-05-28T20:03:32.065Z,11.20
2019-05-28T20:05:58.925Z,11.20
2019-05-28T20:08:25.712Z,11.20
2019-05-28T20:10:52.564Z,11.20
2019-05-28T20:13:19.429Z,11.10
2019-05-28T20:15:46.209Z,11.10
2019-05-28T20:18:25.838Z,11.10
2019-05-28T20:20:41.711Z,11.10
2019-05-28T20:23:08.490Z,11.10
2019-05-28T20:25:35.374Z,11.20
2019-05-28T20:28:02.158Z,11.20
2019-05-28T20:30:29.021Z,11.30
2019-05-28T20:32:55.895Z,11.30
2019-05-28T20:35:22.766Z,11.50
2019-05-28T20:37:49.557Z,11.50
2019-05-28T20:40:16.639Z,11.50
2019-05-28T20:42:43.497Z,11.40
2019-05-28T20:45:12.005Z,11.40
2019-05-28T20:47:39.073Z,11.50
2019-05-28T20:50:07.941Z,11.50
2019-05-28T20:52:34.721Z,11.60
2019-05-28T20:55:01.640Z,11.60
2019-05-28T20:57:28.433Z,11.50
2019-05-28T20:59:55.770Z,11.50
2019-05-28T21:02:22.699Z,11.50
2019-05-28T21:04:50.304Z,11.50
2019-05-28T21:07:17.328Z,11.30
2019-05-28T21:09:44.225Z,11.20
2019-05-28T21:12:11.115Z,11.20
2019-05-28T21:14:37.987Z,11.20
2019-05-28T21:17:04.772Z,11.20
2019-05-28T21:19:31.557Z,11.20
2019-05-28T21:21:58.429Z,11.10
2019-05-28T21:24:25.513Z,11.00
2019-05-28T21:26:54.393Z,10.90
2019-05-28T21:29:21.346Z,10.90
2019-05-28T21:31:48.206Z,10.80
2019-05-28T21:34:14.989Z,10.80
2019-05-28T21:36:41.854Z,10.80
2019-05-28T21:39:08.648Z,10.60
2019-05-28T21:41:35.524Z,10.50
2019-05-28T21:44:03.521Z,10.50
2019-05-28T21:46:30.300Z,10.50
2019-05-28T21:48:58.595Z,10.50
2019-05-28T21:51:25.454Z,10.50
2019-05-28T21:53:52.770Z,10.30
2019-05-28T21:56:19.653Z,10.30
2019-05-28T21:58:46.509Z,10.20
2019-05-28T22:01:19.941Z,10.20
2019-05-28T22:03:46.815Z,10.10
2019-05-28T22:06:13.600Z,10.10
2019-05-28T22:08:40.466Z,10.20
2019-05-28T22:11:08.000Z,10.20
2019-05-28T22:13:34.910Z,10.10
2019-05-28T22:16:02.310Z,10.20
2019-05-28T22:18:29.394Z,10.20
2019-05-28T22:20:56.681Z,10.20
2019-05-28T22:23:23.629Z,10.20
2019-05-28T22:25:50.418Z,10.30
2019-05-28T22:28:17.322Z,10.20
2019-05-28T22:30:44.189Z,10.30
2019-05-28T22:33:11.000Z,10.30
2019-05-28T22:35:37.778Z,10.30
2019-05-28T22:38:05.440Z,10.30
2019-05-28T22:40:32.333Z,10.30
2019-05-28T22:42:59.197Z,10.20
2019-05-28T22:45:25.974Z,10.30
2019-05-28T22:47:54.682Z,10.20
2019-05-28T22:50:23.362Z,10.20
2019-05-28T22:52:50.310Z,10.10
2019-05-28T22:55:17.176Z,10.10
2019-05-28T22:57:44.030Z,10.10
2019-05-28T23:00:11.817Z,10.10
2019-05-28T23:02:38.746Z,10.10
2019-05-28T23:05:05.655Z,10.20
2019-05-28T23:07:32.505Z,10.20
2019-05-28T23:09:59.525Z,10.10
2019-05-28T23:12:26.481Z,10.10
2019-05-28T23:14:53.262Z,10.10
2019-05-28T23:17:20.054Z,10.10
2019-05-28T23:19:46.950Z,10.10
2019-05-28T23:22:14.033Z,10.10
2019-05-28T23:24:40.821Z,10.20
2019-05-28T23:27:07.728Z,10.10
2019-05-28T23:29:34.464Z,10.10
2019-05-28T23:32:02.240Z,10.10
2019-05-28T23:34:29.038Z,10.10
2019-05-28T23:36:55.859Z,10.10
2019-05-28T23:39:22.649Z,10.10
2019-05-28T23:41:49.619Z,10.10
2019-05-28T23:44:16.540Z,10.20
2019-05-28T23:46:43.337Z,10.10
2019-05-28T23:49:10.235Z,10.10
2019-05-28T23:51:37.049Z,10.10
2019-05-28T23:54:03.908Z,10.10
2019-05-28T23:56:30.702Z,10.00
2019-05-28T23:58:57.558Z,10.10
